<?xml version="1.0" encoding="UTF-8" standalone="no" ?>
<gpx xmlns="http://www.topografix.com/GPX/1/1" xmlns:xsi="http://www.w3.org/2001/XMLSchema-instance" xsi:schemaLocation="http://www.topografix.com/GPX/1/1 http://www.topografix.com/GPX/1/1/gpx.xsd" version="1.1" creator="VisuGPX - https://www.visugpx.com">
  <metadata>
    <name>Châtillon en Diois</name>
    <desc><![CDATA[sur les rives du Lez]]></desc>
  </metadata>
  <trk>
    <name><![CDATA[ACTIVE LOG 005]]></name>
    <trkseg>
      <trkpt lat="44.68242" lon="5.44656">
        <ele>521.17199707031</ele>
        <time>2013-08-08T14:49:44Z</time>
      </trkpt>
      <trkpt lat="44.68224" lon="5.44654">
        <ele>520.69128417969</ele>
        <time>2013-08-08T14:49:59Z</time>
      </trkpt>
      <trkpt lat="44.68195" lon="5.44665">
        <ele>519.72985839844</ele>
        <time>2013-08-08T14:50:24Z</time>
      </trkpt>
      <trkpt lat="44.68172" lon="5.44688">
        <ele>519.24926757812</ele>
        <time>2013-08-08T14:50:47Z</time>
      </trkpt>
      <trkpt lat="44.68158" lon="5.44714">
        <ele>518.28784179688</ele>
        <time>2013-08-08T14:51:06Z</time>
      </trkpt>
      <trkpt lat="44.68155" lon="5.44719">
        <ele>518.7685546875</ele>
        <time>2013-08-08T14:51:11Z</time>
      </trkpt>
      <trkpt lat="44.68153" lon="5.44723">
        <ele>518.7685546875</ele>
        <time>2013-08-08T14:51:14Z</time>
      </trkpt>
      <trkpt lat="44.68144" lon="5.44748">
        <ele>518.28784179688</ele>
        <time>2013-08-08T14:51:35Z</time>
      </trkpt>
      <trkpt lat="44.68138" lon="5.44752">
        <ele>518.28784179688</ele>
        <time>2013-08-08T14:52:23Z</time>
      </trkpt>
      <trkpt lat="44.68128" lon="5.44787">
        <ele>519.24926757812</ele>
        <time>2013-08-08T14:52:44Z</time>
      </trkpt>
      <trkpt lat="44.68112" lon="5.44824">
        <ele>518.7685546875</ele>
        <time>2013-08-08T14:53:07Z</time>
      </trkpt>
      <trkpt lat="44.68097" lon="5.44862">
        <ele>518.7685546875</ele>
        <time>2013-08-08T14:53:31Z</time>
      </trkpt>
      <trkpt lat="44.68082" lon="5.449">
        <ele>519.72985839844</ele>
        <time>2013-08-08T14:53:56Z</time>
      </trkpt>
      <trkpt lat="44.68068" lon="5.44949">
        <ele>520.21057128906</ele>
        <time>2013-08-08T14:54:26Z</time>
      </trkpt>
      <trkpt lat="44.68068" lon="5.44957">
        <ele>521.65258789062</ele>
        <time>2013-08-08T14:54:37Z</time>
      </trkpt>
      <trkpt lat="44.68054" lon="5.44955">
        <ele>520.69128417969</ele>
        <time>2013-08-08T14:54:48Z</time>
      </trkpt>
      <trkpt lat="44.68045" lon="5.44957">
        <ele>521.65258789062</ele>
        <time>2013-08-08T14:54:56Z</time>
      </trkpt>
      <trkpt lat="44.6802" lon="5.44975">
        <ele>523.5751953125</ele>
        <time>2013-08-08T14:55:19Z</time>
      </trkpt>
      <trkpt lat="44.68" lon="5.44985">
        <ele>523.5751953125</ele>
        <time>2013-08-08T14:55:36Z</time>
      </trkpt>
      <trkpt lat="44.67998" lon="5.4499">
        <ele>524.05578613281</ele>
        <time>2013-08-08T14:55:40Z</time>
      </trkpt>
      <trkpt lat="44.67982" lon="5.45">
        <ele>525.97839355469</ele>
        <time>2013-08-08T14:55:57Z</time>
      </trkpt>
      <trkpt lat="44.67979" lon="5.45001">
        <ele>525.97839355469</ele>
        <time>2013-08-08T14:56:00Z</time>
      </trkpt>
      <trkpt lat="44.67975" lon="5.45004">
        <ele>526.45910644531</ele>
        <time>2013-08-08T14:56:06Z</time>
      </trkpt>
      <trkpt lat="44.67978" lon="5.45016">
        <ele>526.45910644531</ele>
        <time>2013-08-08T14:56:14Z</time>
      </trkpt>
      <trkpt lat="44.67986" lon="5.45042">
        <ele>526.93981933594</ele>
        <time>2013-08-08T14:56:35Z</time>
      </trkpt>
      <trkpt lat="44.6797" lon="5.45052">
        <ele>525.49780273438</ele>
        <time>2013-08-08T14:56:59Z</time>
      </trkpt>
      <trkpt lat="44.67958" lon="5.45052">
        <ele>525.01721191406</ele>
        <time>2013-08-08T14:57:08Z</time>
      </trkpt>
      <trkpt lat="44.67953" lon="5.45051">
        <ele>525.49780273438</ele>
        <time>2013-08-08T14:57:11Z</time>
      </trkpt>
      <trkpt lat="44.67934" lon="5.45049">
        <ele>525.97839355469</ele>
        <time>2013-08-08T14:57:26Z</time>
      </trkpt>
      <trkpt lat="44.67908" lon="5.45055">
        <ele>525.97839355469</ele>
        <time>2013-08-08T14:58:02Z</time>
      </trkpt>
      <trkpt lat="44.67905" lon="5.4506">
        <ele>526.45910644531</ele>
        <time>2013-08-08T14:58:38Z</time>
      </trkpt>
      <trkpt lat="44.67883" lon="5.4508">
        <ele>527.42041015625</ele>
        <time>2013-08-08T14:58:58Z</time>
      </trkpt>
      <trkpt lat="44.67872" lon="5.45098">
        <ele>527.42041015625</ele>
        <time>2013-08-08T14:59:11Z</time>
      </trkpt>
      <trkpt lat="44.67874" lon="5.45106">
        <ele>526.93981933594</ele>
        <time>2013-08-08T14:59:15Z</time>
      </trkpt>
      <trkpt lat="44.67877" lon="5.45119">
        <ele>526.93981933594</ele>
        <time>2013-08-08T14:59:23Z</time>
      </trkpt>
      <trkpt lat="44.67882" lon="5.45136">
        <ele>527.42041015625</ele>
        <time>2013-08-08T14:59:41Z</time>
      </trkpt>
      <trkpt lat="44.67886" lon="5.45152">
        <ele>526.93981933594</ele>
        <time>2013-08-08T14:59:59Z</time>
      </trkpt>
      <trkpt lat="44.67897" lon="5.45175">
        <ele>527.42041015625</ele>
        <time>2013-08-08T15:00:15Z</time>
      </trkpt>
      <trkpt lat="44.67905" lon="5.45192">
        <ele>527.42041015625</ele>
        <time>2013-08-08T15:00:28Z</time>
      </trkpt>
      <trkpt lat="44.67907" lon="5.45199">
        <ele>527.42041015625</ele>
        <time>2013-08-08T15:00:41Z</time>
      </trkpt>
      <trkpt lat="44.67909" lon="5.45205">
        <ele>527.42041015625</ele>
        <time>2013-08-08T15:00:45Z</time>
      </trkpt>
      <trkpt lat="44.67926" lon="5.45248">
        <ele>527.42041015625</ele>
        <time>2013-08-08T15:01:14Z</time>
      </trkpt>
      <trkpt lat="44.6794" lon="5.45273">
        <ele>527.42041015625</ele>
        <time>2013-08-08T15:01:32Z</time>
      </trkpt>
      <trkpt lat="44.67964" lon="5.45271">
        <ele>527.42041015625</ele>
        <time>2013-08-08T15:01:54Z</time>
      </trkpt>
      <trkpt lat="44.67988" lon="5.45247">
        <ele>526.93981933594</ele>
        <time>2013-08-08T15:03:33Z</time>
      </trkpt>
      <trkpt lat="44.68019" lon="5.45228">
        <ele>526.45910644531</ele>
        <time>2013-08-08T15:04:01Z</time>
      </trkpt>
      <trkpt lat="44.68024" lon="5.45236">
        <ele>525.49780273438</ele>
        <time>2013-08-08T15:04:18Z</time>
      </trkpt>
      <trkpt lat="44.68026" lon="5.45238">
        <ele>525.97839355469</ele>
        <time>2013-08-08T15:05:04Z</time>
      </trkpt>
      <trkpt lat="44.68029" lon="5.45244">
        <ele>525.97839355469</ele>
        <time>2013-08-08T15:05:21Z</time>
      </trkpt>
      <trkpt lat="44.68034" lon="5.45254">
        <ele>525.97839355469</ele>
        <time>2013-08-08T15:05:55Z</time>
      </trkpt>
      <trkpt lat="44.68051" lon="5.45268">
        <ele>525.97839355469</ele>
        <time>2013-08-08T15:06:17Z</time>
      </trkpt>
      <trkpt lat="44.68053" lon="5.45276">
        <ele>526.45910644531</ele>
        <time>2013-08-08T15:07:03Z</time>
      </trkpt>
      <trkpt lat="44.68059" lon="5.45277">
        <ele>526.45910644531</ele>
        <time>2013-08-08T15:07:19Z</time>
      </trkpt>
      <trkpt lat="44.68063" lon="5.45293">
        <ele>528.3818359375</ele>
        <time>2013-08-08T15:07:34Z</time>
      </trkpt>
      <trkpt lat="44.68069" lon="5.45335">
        <ele>529.34313964844</ele>
        <time>2013-08-08T15:08:09Z</time>
      </trkpt>
      <trkpt lat="44.68062" lon="5.45337">
        <ele>529.82373046875</ele>
        <time>2013-08-08T15:08:33Z</time>
      </trkpt>
      <trkpt lat="44.68065" lon="5.45374">
        <ele>531.26574707031</ele>
        <time>2013-08-08T15:09:07Z</time>
      </trkpt>
      <trkpt lat="44.68064" lon="5.45393">
        <ele>531.74633789062</ele>
        <time>2013-08-08T15:09:26Z</time>
      </trkpt>
      <trkpt lat="44.68065" lon="5.45383">
        <ele>531.74633789062</ele>
        <time>2013-08-08T15:09:52Z</time>
      </trkpt>
      <trkpt lat="44.68071" lon="5.45425">
        <ele>532.22705078125</ele>
        <time>2013-08-08T15:10:15Z</time>
      </trkpt>
      <trkpt lat="44.68073" lon="5.45444">
        <ele>532.70776367188</ele>
        <time>2013-08-08T15:10:34Z</time>
      </trkpt>
      <trkpt lat="44.68073" lon="5.45456">
        <ele>532.22705078125</ele>
        <time>2013-08-08T15:11:39Z</time>
      </trkpt>
      <trkpt lat="44.68092" lon="5.45486">
        <ele>532.70776367188</ele>
        <time>2013-08-08T15:12:02Z</time>
      </trkpt>
      <trkpt lat="44.68098" lon="5.45489">
        <ele>532.70776367188</ele>
        <time>2013-08-08T15:12:34Z</time>
      </trkpt>
      <trkpt lat="44.68113" lon="5.45515">
        <ele>532.70776367188</ele>
        <time>2013-08-08T15:12:54Z</time>
      </trkpt>
      <trkpt lat="44.68114" lon="5.45538">
        <ele>533.18835449219</ele>
        <time>2013-08-08T15:13:10Z</time>
      </trkpt>
      <trkpt lat="44.68116" lon="5.45555">
        <ele>533.6689453125</ele>
        <time>2013-08-08T15:13:24Z</time>
      </trkpt>
      <trkpt lat="44.68117" lon="5.45609">
        <ele>534.63037109375</ele>
        <time>2013-08-08T15:13:54Z</time>
      </trkpt>
      <trkpt lat="44.68116" lon="5.45653">
        <ele>536.07238769531</ele>
        <time>2013-08-08T15:14:20Z</time>
      </trkpt>
      <trkpt lat="44.68114" lon="5.45685">
        <ele>536.55310058594</ele>
        <time>2013-08-08T15:14:40Z</time>
      </trkpt>
      <trkpt lat="44.68114" lon="5.45688">
        <ele>536.55310058594</ele>
        <time>2013-08-08T15:14:42Z</time>
      </trkpt>
      <trkpt lat="44.68114" lon="5.45693">
        <ele>537.51428222656</ele>
        <time>2013-08-08T15:14:45Z</time>
      </trkpt>
      <trkpt lat="44.68114" lon="5.457">
        <ele>537.51428222656</ele>
        <time>2013-08-08T15:14:49Z</time>
      </trkpt>
      <trkpt lat="44.68115" lon="5.45702">
        <ele>537.99499511719</ele>
        <time>2013-08-08T15:14:51Z</time>
      </trkpt>
      <trkpt lat="44.68115" lon="5.45707">
        <ele>537.99499511719</ele>
        <time>2013-08-08T15:14:54Z</time>
      </trkpt>
      <trkpt lat="44.68116" lon="5.4571">
        <ele>538.47570800781</ele>
        <time>2013-08-08T15:14:56Z</time>
      </trkpt>
      <trkpt lat="44.68115" lon="5.45714">
        <ele>537.99499511719</ele>
        <time>2013-08-08T15:14:58Z</time>
      </trkpt>
      <trkpt lat="44.68117" lon="5.45725">
        <ele>538.47570800781</ele>
        <time>2013-08-08T15:15:05Z</time>
      </trkpt>
      <trkpt lat="44.68121" lon="5.45741">
        <ele>538.47570800781</ele>
        <time>2013-08-08T15:15:17Z</time>
      </trkpt>
      <trkpt lat="44.6813" lon="5.45778">
        <ele>539.91760253906</ele>
        <time>2013-08-08T15:15:38Z</time>
      </trkpt>
      <trkpt lat="44.68133" lon="5.45784">
        <ele>539.43688964844</ele>
        <time>2013-08-08T15:15:59Z</time>
      </trkpt>
      <trkpt lat="44.6814" lon="5.45809">
        <ele>539.43688964844</ele>
        <time>2013-08-08T15:16:15Z</time>
      </trkpt>
      <trkpt lat="44.68145" lon="5.45837">
        <ele>538.95629882812</ele>
        <time>2013-08-08T15:16:31Z</time>
      </trkpt>
      <trkpt lat="44.68153" lon="5.45873">
        <ele>538.95629882812</ele>
        <time>2013-08-08T15:16:51Z</time>
      </trkpt>
      <trkpt lat="44.68158" lon="5.45899">
        <ele>539.43688964844</ele>
        <time>2013-08-08T15:17:11Z</time>
      </trkpt>
      <trkpt lat="44.68162" lon="5.45922">
        <ele>539.43688964844</ele>
        <time>2013-08-08T15:18:20Z</time>
      </trkpt>
      <trkpt lat="44.68171" lon="5.4595">
        <ele>539.43688964844</ele>
        <time>2013-08-08T15:18:39Z</time>
      </trkpt>
      <trkpt lat="44.68174" lon="5.45971">
        <ele>539.91760253906</ele>
        <time>2013-08-08T15:18:55Z</time>
      </trkpt>
      <trkpt lat="44.6818" lon="5.46009">
        <ele>541.35949707031</ele>
        <time>2013-08-08T15:19:20Z</time>
      </trkpt>
      <trkpt lat="44.68185" lon="5.46038">
        <ele>539.91760253906</ele>
        <time>2013-08-08T15:19:41Z</time>
      </trkpt>
      <trkpt lat="44.6819" lon="5.46044">
        <ele>539.43688964844</ele>
        <time>2013-08-08T15:20:03Z</time>
      </trkpt>
      <trkpt lat="44.68191" lon="5.46046">
        <ele>539.43688964844</ele>
        <time>2013-08-08T15:20:12Z</time>
      </trkpt>
      <trkpt lat="44.68195" lon="5.4605">
        <ele>538.47570800781</ele>
        <time>2013-08-08T15:20:16Z</time>
      </trkpt>
      <trkpt lat="44.68198" lon="5.46058">
        <ele>538.47570800781</ele>
        <time>2013-08-08T15:20:22Z</time>
      </trkpt>
      <trkpt lat="44.68196" lon="5.46066">
        <ele>537.99499511719</ele>
        <time>2013-08-08T15:20:27Z</time>
      </trkpt>
      <trkpt lat="44.68198" lon="5.46082">
        <ele>538.47570800781</ele>
        <time>2013-08-08T15:20:37Z</time>
      </trkpt>
      <trkpt lat="44.68201" lon="5.46094">
        <ele>538.47570800781</ele>
        <time>2013-08-08T15:20:44Z</time>
      </trkpt>
      <trkpt lat="44.68203" lon="5.461">
        <ele>538.95629882812</ele>
        <time>2013-08-08T15:20:47Z</time>
      </trkpt>
      <trkpt lat="44.68203" lon="5.46106">
        <ele>538.95629882812</ele>
        <time>2013-08-08T15:20:50Z</time>
      </trkpt>
      <trkpt lat="44.68204" lon="5.46111">
        <ele>538.95629882812</ele>
        <time>2013-08-08T15:20:53Z</time>
      </trkpt>
      <trkpt lat="44.68204" lon="5.46116">
        <ele>539.43688964844</ele>
        <time>2013-08-08T15:20:56Z</time>
      </trkpt>
      <trkpt lat="44.682" lon="5.46119">
        <ele>539.91760253906</ele>
        <time>2013-08-08T15:21:00Z</time>
      </trkpt>
      <trkpt lat="44.68201" lon="5.46131">
        <ele>540.87890625</ele>
        <time>2013-08-08T15:21:09Z</time>
      </trkpt>
      <trkpt lat="44.68204" lon="5.46138">
        <ele>540.87890625</ele>
        <time>2013-08-08T15:21:14Z</time>
      </trkpt>
      <trkpt lat="44.68206" lon="5.46143">
        <ele>541.35949707031</ele>
        <time>2013-08-08T15:21:18Z</time>
      </trkpt>
      <trkpt lat="44.68205" lon="5.4615">
        <ele>541.35949707031</ele>
        <time>2013-08-08T15:21:25Z</time>
      </trkpt>
      <trkpt lat="44.68208" lon="5.4616">
        <ele>541.84020996094</ele>
        <time>2013-08-08T15:21:43Z</time>
      </trkpt>
      <trkpt lat="44.68211" lon="5.46174">
        <ele>542.32092285156</ele>
        <time>2013-08-08T15:22:17Z</time>
      </trkpt>
      <trkpt lat="44.68216" lon="5.46175">
        <ele>542.80151367188</ele>
        <time>2013-08-08T15:22:28Z</time>
      </trkpt>
      <trkpt lat="44.68216" lon="5.46182">
        <ele>542.80151367188</ele>
        <time>2013-08-08T15:22:53Z</time>
      </trkpt>
      <trkpt lat="44.68216" lon="5.46198">
        <ele>543.28210449219</ele>
        <time>2013-08-08T15:23:04Z</time>
      </trkpt>
      <trkpt lat="44.68211" lon="5.46225">
        <ele>544.72424316406</ele>
        <time>2013-08-08T15:23:22Z</time>
      </trkpt>
      <trkpt lat="44.682" lon="5.46262">
        <ele>546.64685058594</ele>
        <time>2013-08-08T15:23:49Z</time>
      </trkpt>
      <trkpt lat="44.682" lon="5.46268">
        <ele>546.64685058594</ele>
        <time>2013-08-08T15:23:53Z</time>
      </trkpt>
      <trkpt lat="44.68201" lon="5.46271">
        <ele>546.64685058594</ele>
        <time>2013-08-08T15:23:55Z</time>
      </trkpt>
      <trkpt lat="44.68196" lon="5.46304">
        <ele>548.5693359375</ele>
        <time>2013-08-08T15:24:17Z</time>
      </trkpt>
      <trkpt lat="44.68195" lon="5.46328">
        <ele>549.05004882812</ele>
        <time>2013-08-08T15:24:32Z</time>
      </trkpt>
      <trkpt lat="44.68194" lon="5.4634">
        <ele>550.01147460938</ele>
        <time>2013-08-08T15:24:45Z</time>
      </trkpt>
      <trkpt lat="44.68193" lon="5.46348">
        <ele>550.01147460938</ele>
        <time>2013-08-08T15:25:15Z</time>
      </trkpt>
      <trkpt lat="44.6819" lon="5.46355">
        <ele>550.01147460938</ele>
        <time>2013-08-08T15:25:20Z</time>
      </trkpt>
      <trkpt lat="44.68188" lon="5.46391">
        <ele>550.97265625</ele>
        <time>2013-08-08T15:25:43Z</time>
      </trkpt>
      <trkpt lat="44.68189" lon="5.46393">
        <ele>551.45336914062</ele>
        <time>2013-08-08T15:25:45Z</time>
      </trkpt>
      <trkpt lat="44.68189" lon="5.46398">
        <ele>550.97265625</ele>
        <time>2013-08-08T15:25:48Z</time>
      </trkpt>
      <trkpt lat="44.68188" lon="5.46406">
        <ele>551.45336914062</ele>
        <time>2013-08-08T15:25:52Z</time>
      </trkpt>
      <trkpt lat="44.68192" lon="5.46435">
        <ele>551.93408203125</ele>
        <time>2013-08-08T15:26:10Z</time>
      </trkpt>
      <trkpt lat="44.68196" lon="5.46453">
        <ele>551.45336914062</ele>
        <time>2013-08-08T15:26:26Z</time>
      </trkpt>
      <trkpt lat="44.68201" lon="5.46471">
        <ele>550.97265625</ele>
        <time>2013-08-08T15:26:45Z</time>
      </trkpt>
      <trkpt lat="44.68202" lon="5.46473">
        <ele>550.97265625</ele>
        <time>2013-08-08T15:26:47Z</time>
      </trkpt>
      <trkpt lat="44.68206" lon="5.46488">
        <ele>550.97265625</ele>
        <time>2013-08-08T15:27:04Z</time>
      </trkpt>
      <trkpt lat="44.68209" lon="5.46499">
        <ele>550.97265625</ele>
        <time>2013-08-08T15:27:31Z</time>
      </trkpt>
      <trkpt lat="44.6821" lon="5.465">
        <ele>550.97265625</ele>
        <time>2013-08-08T15:27:58Z</time>
      </trkpt>
      <trkpt lat="44.68207" lon="5.46499">
        <ele>550.4921875</ele>
        <time>2013-08-08T15:28:12Z</time>
      </trkpt>
      <trkpt lat="44.6821" lon="5.46502">
        <ele>550.4921875</ele>
        <time>2013-08-08T15:29:13Z</time>
      </trkpt>
      <trkpt lat="44.68212" lon="5.46507">
        <ele>550.4921875</ele>
        <time>2013-08-08T15:29:17Z</time>
      </trkpt>
      <trkpt lat="44.68219" lon="5.46535">
        <ele>549.05004882812</ele>
        <time>2013-08-08T15:29:37Z</time>
      </trkpt>
      <trkpt lat="44.68222" lon="5.46546">
        <ele>549.05004882812</ele>
        <time>2013-08-08T15:29:46Z</time>
      </trkpt>
      <trkpt lat="44.68228" lon="5.46568">
        <ele>548.0888671875</ele>
        <time>2013-08-08T15:30:07Z</time>
      </trkpt>
      <trkpt lat="44.6823" lon="5.46571">
        <ele>548.0888671875</ele>
        <time>2013-08-08T15:30:48Z</time>
      </trkpt>
      <trkpt lat="44.68234" lon="5.46584">
        <ele>547.60815429688</ele>
        <time>2013-08-08T15:31:03Z</time>
      </trkpt>
      <trkpt lat="44.68235" lon="5.46595">
        <ele>547.60815429688</ele>
        <time>2013-08-08T15:31:15Z</time>
      </trkpt>
      <trkpt lat="44.68234" lon="5.46594">
        <ele>547.60815429688</ele>
        <time>2013-08-08T15:32:16Z</time>
      </trkpt>
      <trkpt lat="44.68237" lon="5.46608">
        <ele>546.64685058594</ele>
        <time>2013-08-08T15:33:09Z</time>
      </trkpt>
      <trkpt lat="44.68244" lon="5.46629">
        <ele>546.64685058594</ele>
        <time>2013-08-08T15:33:27Z</time>
      </trkpt>
      <trkpt lat="44.68246" lon="5.46632">
        <ele>546.16625976562</ele>
        <time>2013-08-08T15:33:46Z</time>
      </trkpt>
      <trkpt lat="44.68249" lon="5.46646">
        <ele>545.685546875</ele>
        <time>2013-08-08T15:34:01Z</time>
      </trkpt>
      <trkpt lat="44.68242" lon="5.46659">
        <ele>544.24365234375</ele>
        <time>2013-08-08T15:34:19Z</time>
      </trkpt>
      <trkpt lat="44.68241" lon="5.46664">
        <ele>543.76281738281</ele>
        <time>2013-08-08T15:34:26Z</time>
      </trkpt>
      <trkpt lat="44.68236" lon="5.46669">
        <ele>543.28210449219</ele>
        <time>2013-08-08T15:34:32Z</time>
      </trkpt>
      <trkpt lat="44.68225" lon="5.46673">
        <ele>541.84020996094</ele>
        <time>2013-08-08T15:34:40Z</time>
      </trkpt>
      <trkpt lat="44.68223" lon="5.46674">
        <ele>541.84020996094</ele>
        <time>2013-08-08T15:34:42Z</time>
      </trkpt>
      <trkpt lat="44.6822" lon="5.46675">
        <ele>541.84020996094</ele>
        <time>2013-08-08T15:34:45Z</time>
      </trkpt>
      <trkpt lat="44.68217" lon="5.46692">
        <ele>541.35949707031</ele>
        <time>2013-08-08T15:34:58Z</time>
      </trkpt>
      <trkpt lat="44.68221" lon="5.46698">
        <ele>541.35949707031</ele>
        <time>2013-08-08T15:35:05Z</time>
      </trkpt>
      <trkpt lat="44.68239" lon="5.46708">
        <ele>541.84020996094</ele>
        <time>2013-08-08T15:35:20Z</time>
      </trkpt>
      <trkpt lat="44.68249" lon="5.46703">
        <ele>542.80151367188</ele>
        <time>2013-08-08T15:35:29Z</time>
      </trkpt>
      <trkpt lat="44.68256" lon="5.46706">
        <ele>543.76281738281</ele>
        <time>2013-08-08T15:35:33Z</time>
      </trkpt>
      <trkpt lat="44.68263" lon="5.46701">
        <ele>544.24365234375</ele>
        <time>2013-08-08T15:35:45Z</time>
      </trkpt>
      <trkpt lat="44.68256" lon="5.467">
        <ele>543.28210449219</ele>
        <time>2013-08-08T15:36:01Z</time>
      </trkpt>
      <trkpt lat="44.68259" lon="5.467">
        <ele>544.24365234375</ele>
        <time>2013-08-08T15:36:12Z</time>
      </trkpt>
      <trkpt lat="44.68262" lon="5.46703">
        <ele>544.72424316406</ele>
        <time>2013-08-08T15:36:42Z</time>
      </trkpt>
      <trkpt lat="44.68274" lon="5.46716">
        <ele>545.20483398438</ele>
        <time>2013-08-08T15:36:54Z</time>
      </trkpt>
      <trkpt lat="44.68277" lon="5.46715">
        <ele>545.685546875</ele>
        <time>2013-08-08T15:37:01Z</time>
      </trkpt>
      <trkpt lat="44.68287" lon="5.46728">
        <ele>547.60815429688</ele>
        <time>2013-08-08T15:37:17Z</time>
      </trkpt>
      <trkpt lat="44.68305" lon="5.46744">
        <ele>549.05004882812</ele>
        <time>2013-08-08T15:37:37Z</time>
      </trkpt>
      <trkpt lat="44.68327" lon="5.46767">
        <ele>548.0888671875</ele>
        <time>2013-08-08T15:38:01Z</time>
      </trkpt>
      <trkpt lat="44.6835" lon="5.46792">
        <ele>546.64685058594</ele>
        <time>2013-08-08T15:38:24Z</time>
      </trkpt>
      <trkpt lat="44.68369" lon="5.46835">
        <ele>547.12744140625</ele>
        <time>2013-08-08T15:38:51Z</time>
      </trkpt>
      <trkpt lat="44.68387" lon="5.46881">
        <ele>547.12744140625</ele>
        <time>2013-08-08T15:39:20Z</time>
      </trkpt>
      <trkpt lat="44.6841" lon="5.46915">
        <ele>547.60815429688</ele>
        <time>2013-08-08T15:39:46Z</time>
      </trkpt>
      <trkpt lat="44.68417" lon="5.46929">
        <ele>547.60815429688</ele>
        <time>2013-08-08T15:40:01Z</time>
      </trkpt>
      <trkpt lat="44.68422" lon="5.46963">
        <ele>549.53076171875</ele>
        <time>2013-08-08T15:40:22Z</time>
      </trkpt>
      <trkpt lat="44.68422" lon="5.46971">
        <ele>550.97265625</ele>
        <time>2013-08-08T15:40:32Z</time>
      </trkpt>
      <trkpt lat="44.68429" lon="5.46979">
        <ele>551.45336914062</ele>
        <time>2013-08-08T15:40:47Z</time>
      </trkpt>
      <trkpt lat="44.68419" lon="5.46983">
        <ele>550.97265625</ele>
        <time>2013-08-08T15:41:50Z</time>
      </trkpt>
      <trkpt lat="44.68417" lon="5.46993">
        <ele>551.45336914062</ele>
        <time>2013-08-08T15:41:58Z</time>
      </trkpt>
      <trkpt lat="44.68433" lon="5.47017">
        <ele>552.89526367188</ele>
        <time>2013-08-08T15:42:19Z</time>
      </trkpt>
      <trkpt lat="44.68436" lon="5.47043">
        <ele>554.81787109375</ele>
        <time>2013-08-08T15:42:38Z</time>
      </trkpt>
      <trkpt lat="44.68425" lon="5.47073">
        <ele>557.22143554688</ele>
        <time>2013-08-08T15:43:01Z</time>
      </trkpt>
      <trkpt lat="44.68426" lon="5.47087">
        <ele>557.7021484375</ele>
        <time>2013-08-08T15:43:10Z</time>
      </trkpt>
      <trkpt lat="44.68427" lon="5.47099">
        <ele>558.18286132812</ele>
        <time>2013-08-08T15:43:29Z</time>
      </trkpt>
      <trkpt lat="44.68433" lon="5.47134">
        <ele>558.18286132812</ele>
        <time>2013-08-08T15:43:50Z</time>
      </trkpt>
      <trkpt lat="44.68432" lon="5.47157">
        <ele>557.22143554688</ele>
        <time>2013-08-08T15:44:04Z</time>
      </trkpt>
      <trkpt lat="44.68431" lon="5.47162">
        <ele>556.74072265625</ele>
        <time>2013-08-08T15:44:07Z</time>
      </trkpt>
      <trkpt lat="44.68417" lon="5.47185">
        <ele>554.81787109375</ele>
        <time>2013-08-08T15:44:24Z</time>
      </trkpt>
      <trkpt lat="44.68414" lon="5.47194">
        <ele>554.33740234375</ele>
        <time>2013-08-08T15:44:29Z</time>
      </trkpt>
      <trkpt lat="44.68423" lon="5.47197">
        <ele>553.85668945312</ele>
        <time>2013-08-08T15:44:37Z</time>
      </trkpt>
      <trkpt lat="44.68432" lon="5.47191">
        <ele>553.85668945312</ele>
        <time>2013-08-08T15:44:45Z</time>
      </trkpt>
      <trkpt lat="44.68437" lon="5.47188">
        <ele>553.85668945312</ele>
        <time>2013-08-08T15:44:49Z</time>
      </trkpt>
      <trkpt lat="44.68456" lon="5.47175">
        <ele>555.29858398438</ele>
        <time>2013-08-08T15:45:07Z</time>
      </trkpt>
      <trkpt lat="44.68461" lon="5.47173">
        <ele>555.779296875</ele>
        <time>2013-08-08T15:45:11Z</time>
      </trkpt>
      <trkpt lat="44.68473" lon="5.47175">
        <ele>556.26000976562</ele>
        <time>2013-08-08T15:45:24Z</time>
      </trkpt>
      <trkpt lat="44.68485" lon="5.47186">
        <ele>556.26000976562</ele>
        <time>2013-08-08T15:45:46Z</time>
      </trkpt>
      <trkpt lat="44.68499" lon="5.47216">
        <ele>557.22143554688</ele>
        <time>2013-08-08T15:46:06Z</time>
      </trkpt>
      <trkpt lat="44.68509" lon="5.47244">
        <ele>556.74072265625</ele>
        <time>2013-08-08T15:46:23Z</time>
      </trkpt>
      <trkpt lat="44.68511" lon="5.47253">
        <ele>556.74072265625</ele>
        <time>2013-08-08T15:46:28Z</time>
      </trkpt>
      <trkpt lat="44.68532" lon="5.47289">
        <ele>556.26000976562</ele>
        <time>2013-08-08T15:46:53Z</time>
      </trkpt>
      <trkpt lat="44.68541" lon="5.47318">
        <ele>558.18286132812</ele>
        <time>2013-08-08T15:47:14Z</time>
      </trkpt>
      <trkpt lat="44.68526" lon="5.47335">
        <ele>559.62475585938</ele>
        <time>2013-08-08T15:47:34Z</time>
      </trkpt>
      <trkpt lat="44.68524" lon="5.47338">
        <ele>560.10522460938</ele>
        <time>2013-08-08T15:47:37Z</time>
      </trkpt>
      <trkpt lat="44.68521" lon="5.4734">
        <ele>560.5859375</ele>
        <time>2013-08-08T15:47:40Z</time>
      </trkpt>
      <trkpt lat="44.68517" lon="5.47354">
        <ele>562.02807617188</ele>
        <time>2013-08-08T15:47:53Z</time>
      </trkpt>
      <trkpt lat="44.68523" lon="5.47362">
        <ele>562.02807617188</ele>
        <time>2013-08-08T15:48:02Z</time>
      </trkpt>
      <trkpt lat="44.68536" lon="5.47366">
        <ele>562.9892578125</ele>
        <time>2013-08-08T15:48:14Z</time>
      </trkpt>
      <trkpt lat="44.68538" lon="5.47369">
        <ele>562.9892578125</ele>
        <time>2013-08-08T15:48:15Z</time>
      </trkpt>
      <trkpt lat="44.68539" lon="5.47374">
        <ele>563.46997070312</ele>
        <time>2013-08-08T15:48:18Z</time>
      </trkpt>
      <trkpt lat="44.68545" lon="5.47377">
        <ele>564.43115234375</ele>
        <time>2013-08-08T15:48:22Z</time>
      </trkpt>
      <trkpt lat="44.68547" lon="5.47378">
        <ele>564.43115234375</ele>
        <time>2013-08-08T15:48:24Z</time>
      </trkpt>
      <trkpt lat="44.68554" lon="5.47391">
        <ele>566.35375976562</ele>
        <time>2013-08-08T15:48:38Z</time>
      </trkpt>
      <trkpt lat="44.68559" lon="5.47402">
        <ele>566.35375976562</ele>
        <time>2013-08-08T15:48:46Z</time>
      </trkpt>
      <trkpt lat="44.68561" lon="5.47408">
        <ele>566.35375976562</ele>
        <time>2013-08-08T15:48:50Z</time>
      </trkpt>
      <trkpt lat="44.68565" lon="5.47421">
        <ele>565.392578125</ele>
        <time>2013-08-08T15:48:59Z</time>
      </trkpt>
      <trkpt lat="44.68566" lon="5.47425">
        <ele>565.392578125</ele>
        <time>2013-08-08T15:49:02Z</time>
      </trkpt>
      <trkpt lat="44.68568" lon="5.47436">
        <ele>564.43115234375</ele>
        <time>2013-08-08T15:49:08Z</time>
      </trkpt>
      <trkpt lat="44.6856" lon="5.47442">
        <ele>564.91186523438</ele>
        <time>2013-08-08T15:49:15Z</time>
      </trkpt>
      <trkpt lat="44.6856" lon="5.4745">
        <ele>564.91186523438</ele>
        <time>2013-08-08T15:49:19Z</time>
      </trkpt>
      <trkpt lat="44.68569" lon="5.47462">
        <ele>565.87329101562</ele>
        <time>2013-08-08T15:49:28Z</time>
      </trkpt>
      <trkpt lat="44.68572" lon="5.47468">
        <ele>564.91186523438</ele>
        <time>2013-08-08T15:49:32Z</time>
      </trkpt>
      <trkpt lat="44.68577" lon="5.4747">
        <ele>564.43115234375</ele>
        <time>2013-08-08T15:49:37Z</time>
      </trkpt>
      <trkpt lat="44.68582" lon="5.47468">
        <ele>563.95043945312</ele>
        <time>2013-08-08T15:49:52Z</time>
      </trkpt>
      <trkpt lat="44.68588" lon="5.47469">
        <ele>563.46997070312</ele>
        <time>2013-08-08T15:50:04Z</time>
      </trkpt>
      <trkpt lat="44.68594" lon="5.47475">
        <ele>563.46997070312</ele>
        <time>2013-08-08T15:50:10Z</time>
      </trkpt>
      <trkpt lat="44.68604" lon="5.47492">
        <ele>563.46997070312</ele>
        <time>2013-08-08T15:50:25Z</time>
      </trkpt>
      <trkpt lat="44.68605" lon="5.47494">
        <ele>563.95043945312</ele>
        <time>2013-08-08T15:50:27Z</time>
      </trkpt>
      <trkpt lat="44.68614" lon="5.47497">
        <ele>563.95043945312</ele>
        <time>2013-08-08T15:50:35Z</time>
      </trkpt>
      <trkpt lat="44.68619" lon="5.47501">
        <ele>564.43115234375</ele>
        <time>2013-08-08T15:50:39Z</time>
      </trkpt>
      <trkpt lat="44.68622" lon="5.47506">
        <ele>564.43115234375</ele>
        <time>2013-08-08T15:50:43Z</time>
      </trkpt>
      <trkpt lat="44.68623" lon="5.47511">
        <ele>563.95043945312</ele>
        <time>2013-08-08T15:50:46Z</time>
      </trkpt>
      <trkpt lat="44.68623" lon="5.47514">
        <ele>564.91186523438</ele>
        <time>2013-08-08T15:50:48Z</time>
      </trkpt>
      <trkpt lat="44.68624" lon="5.47522">
        <ele>565.392578125</ele>
        <time>2013-08-08T15:50:53Z</time>
      </trkpt>
      <trkpt lat="44.68627" lon="5.47522">
        <ele>564.91186523438</ele>
        <time>2013-08-08T15:50:57Z</time>
      </trkpt>
      <trkpt lat="44.68632" lon="5.47519">
        <ele>564.91186523438</ele>
        <time>2013-08-08T15:51:02Z</time>
      </trkpt>
      <trkpt lat="44.68642" lon="5.47523">
        <ele>564.43115234375</ele>
        <time>2013-08-08T15:51:11Z</time>
      </trkpt>
      <trkpt lat="44.68644" lon="5.47529">
        <ele>564.43115234375</ele>
        <time>2013-08-08T15:51:15Z</time>
      </trkpt>
      <trkpt lat="44.68649" lon="5.47542">
        <ele>564.43115234375</ele>
        <time>2013-08-08T15:51:25Z</time>
      </trkpt>
      <trkpt lat="44.68651" lon="5.47543">
        <ele>564.91186523438</ele>
        <time>2013-08-08T15:51:27Z</time>
      </trkpt>
      <trkpt lat="44.68658" lon="5.47539">
        <ele>563.46997070312</ele>
        <time>2013-08-08T15:51:35Z</time>
      </trkpt>
      <trkpt lat="44.68669" lon="5.47556">
        <ele>564.43115234375</ele>
        <time>2013-08-08T15:51:49Z</time>
      </trkpt>
      <trkpt lat="44.68679" lon="5.4757">
        <ele>563.95043945312</ele>
        <time>2013-08-08T15:51:59Z</time>
      </trkpt>
      <trkpt lat="44.68686" lon="5.47573">
        <ele>562.9892578125</ele>
        <time>2013-08-08T15:52:05Z</time>
      </trkpt>
      <trkpt lat="44.68692" lon="5.47585">
        <ele>563.95043945312</ele>
        <time>2013-08-08T15:52:20Z</time>
      </trkpt>
      <trkpt lat="44.68694" lon="5.47587">
        <ele>563.46997070312</ele>
        <time>2013-08-08T15:52:23Z</time>
      </trkpt>
      <trkpt lat="44.68706" lon="5.47603">
        <ele>564.91186523438</ele>
        <time>2013-08-08T15:52:36Z</time>
      </trkpt>
      <trkpt lat="44.68721" lon="5.47623">
        <ele>567.79565429688</ele>
        <time>2013-08-08T15:52:56Z</time>
      </trkpt>
      <trkpt lat="44.68712" lon="5.47644">
        <ele>565.392578125</ele>
        <time>2013-08-08T15:53:12Z</time>
      </trkpt>
      <trkpt lat="44.68709" lon="5.47657">
        <ele>563.95043945312</ele>
        <time>2013-08-08T15:53:20Z</time>
      </trkpt>
      <trkpt lat="44.68713" lon="5.47666">
        <ele>562.9892578125</ele>
        <time>2013-08-08T15:53:28Z</time>
      </trkpt>
      <trkpt lat="44.68718" lon="5.47671">
        <ele>562.9892578125</ele>
        <time>2013-08-08T15:53:35Z</time>
      </trkpt>
      <trkpt lat="44.68723" lon="5.47675">
        <ele>563.46997070312</ele>
        <time>2013-08-08T15:53:41Z</time>
      </trkpt>
      <trkpt lat="44.6873" lon="5.47673">
        <ele>563.95043945312</ele>
        <time>2013-08-08T15:53:47Z</time>
      </trkpt>
      <trkpt lat="44.68733" lon="5.47673">
        <ele>563.46997070312</ele>
        <time>2013-08-08T15:53:50Z</time>
      </trkpt>
      <trkpt lat="44.68735" lon="5.47675">
        <ele>563.95043945312</ele>
        <time>2013-08-08T15:53:53Z</time>
      </trkpt>
      <trkpt lat="44.68749" lon="5.47694">
        <ele>565.392578125</ele>
        <time>2013-08-08T15:54:08Z</time>
      </trkpt>
      <trkpt lat="44.68749" lon="5.47704">
        <ele>564.91186523438</ele>
        <time>2013-08-08T15:54:13Z</time>
      </trkpt>
      <trkpt lat="44.68751" lon="5.47705">
        <ele>564.91186523438</ele>
        <time>2013-08-08T15:54:17Z</time>
      </trkpt>
      <trkpt lat="44.68755" lon="5.47704">
        <ele>565.392578125</ele>
        <time>2013-08-08T15:54:20Z</time>
      </trkpt>
      <trkpt lat="44.68769" lon="5.47701">
        <ele>565.87329101562</ele>
        <time>2013-08-08T15:54:29Z</time>
      </trkpt>
      <trkpt lat="44.68767" lon="5.47711">
        <ele>566.35375976562</ele>
        <time>2013-08-08T15:54:35Z</time>
      </trkpt>
      <trkpt lat="44.6877" lon="5.47718">
        <ele>566.35375976562</ele>
        <time>2013-08-08T15:54:40Z</time>
      </trkpt>
      <trkpt lat="44.68772" lon="5.4772">
        <ele>566.83447265625</ele>
        <time>2013-08-08T15:54:42Z</time>
      </trkpt>
      <trkpt lat="44.68776" lon="5.47742">
        <ele>567.79565429688</ele>
        <time>2013-08-08T15:54:55Z</time>
      </trkpt>
      <trkpt lat="44.68776" lon="5.47747">
        <ele>567.79565429688</ele>
        <time>2013-08-08T15:54:57Z</time>
      </trkpt>
      <trkpt lat="44.68777" lon="5.4775">
        <ele>567.79565429688</ele>
        <time>2013-08-08T15:54:59Z</time>
      </trkpt>
      <trkpt lat="44.68777" lon="5.47759">
        <ele>567.79565429688</ele>
        <time>2013-08-08T15:55:04Z</time>
      </trkpt>
      <trkpt lat="44.6878" lon="5.47765">
        <ele>568.2763671875</ele>
        <time>2013-08-08T15:55:08Z</time>
      </trkpt>
      <trkpt lat="44.68786" lon="5.4777">
        <ele>569.23779296875</ele>
        <time>2013-08-08T15:55:14Z</time>
      </trkpt>
      <trkpt lat="44.6879" lon="5.47782">
        <ele>569.23779296875</ele>
        <time>2013-08-08T15:55:22Z</time>
      </trkpt>
      <trkpt lat="44.68793" lon="5.4779">
        <ele>570.19897460938</ele>
        <time>2013-08-08T15:55:28Z</time>
      </trkpt>
      <trkpt lat="44.68801" lon="5.47809">
        <ele>570.6796875</ele>
        <time>2013-08-08T15:55:41Z</time>
      </trkpt>
      <trkpt lat="44.68805" lon="5.47815">
        <ele>571.16040039062</ele>
        <time>2013-08-08T15:55:46Z</time>
      </trkpt>
      <trkpt lat="44.68805" lon="5.47818">
        <ele>570.19897460938</ele>
        <time>2013-08-08T15:55:48Z</time>
      </trkpt>
      <trkpt lat="44.68802" lon="5.47825">
        <ele>569.71850585938</ele>
        <time>2013-08-08T15:55:53Z</time>
      </trkpt>
      <trkpt lat="44.688" lon="5.47832">
        <ele>568.75708007812</ele>
        <time>2013-08-08T15:55:59Z</time>
      </trkpt>
      <trkpt lat="44.68812" lon="5.47842">
        <ele>568.2763671875</ele>
        <time>2013-08-08T15:56:11Z</time>
      </trkpt>
      <trkpt lat="44.68816" lon="5.4784">
        <ele>568.2763671875</ele>
        <time>2013-08-08T15:56:22Z</time>
      </trkpt>
      <trkpt lat="44.68825" lon="5.47837">
        <ele>569.23779296875</ele>
        <time>2013-08-08T15:56:31Z</time>
      </trkpt>
      <trkpt lat="44.68829" lon="5.47867">
        <ele>571.64086914062</ele>
        <time>2013-08-08T15:56:50Z</time>
      </trkpt>
      <trkpt lat="44.68834" lon="5.47878">
        <ele>572.12182617188</ele>
        <time>2013-08-08T15:56:59Z</time>
      </trkpt>
      <trkpt lat="44.68843" lon="5.47906">
        <ele>573.08325195312</ele>
        <time>2013-08-08T15:57:17Z</time>
      </trkpt>
      <trkpt lat="44.68845" lon="5.47913">
        <ele>573.08325195312</ele>
        <time>2013-08-08T15:57:22Z</time>
      </trkpt>
      <trkpt lat="44.68843" lon="5.47924">
        <ele>573.56396484375</ele>
        <time>2013-08-08T15:57:29Z</time>
      </trkpt>
      <trkpt lat="44.68844" lon="5.47934">
        <ele>573.56396484375</ele>
        <time>2013-08-08T15:57:37Z</time>
      </trkpt>
      <trkpt lat="44.68848" lon="5.47935">
        <ele>573.56396484375</ele>
        <time>2013-08-08T15:57:39Z</time>
      </trkpt>
      <trkpt lat="44.68852" lon="5.47936">
        <ele>573.56396484375</ele>
        <time>2013-08-08T15:57:50Z</time>
      </trkpt>
      <trkpt lat="44.68864" lon="5.47942">
        <ele>572.12182617188</ele>
        <time>2013-08-08T15:58:44Z</time>
      </trkpt>
      <trkpt lat="44.68876" lon="5.47947">
        <ele>570.6796875</ele>
        <time>2013-08-08T15:58:52Z</time>
      </trkpt>
      <trkpt lat="44.68884" lon="5.47952">
        <ele>569.23779296875</ele>
        <time>2013-08-08T15:58:59Z</time>
      </trkpt>
      <trkpt lat="44.68887" lon="5.47969">
        <ele>569.23779296875</ele>
        <time>2013-08-08T15:59:11Z</time>
      </trkpt>
      <trkpt lat="44.68891" lon="5.47984">
        <ele>569.71850585938</ele>
        <time>2013-08-08T15:59:19Z</time>
      </trkpt>
      <trkpt lat="44.68892" lon="5.47999">
        <ele>570.6796875</ele>
        <time>2013-08-08T15:59:29Z</time>
      </trkpt>
      <trkpt lat="44.68893" lon="5.48002">
        <ele>571.16040039062</ele>
        <time>2013-08-08T15:59:39Z</time>
      </trkpt>
      <trkpt lat="44.68894" lon="5.48006">
        <ele>571.16040039062</ele>
        <time>2013-08-08T15:59:42Z</time>
      </trkpt>
      <trkpt lat="44.68895" lon="5.48014">
        <ele>570.6796875</ele>
        <time>2013-08-08T15:59:47Z</time>
      </trkpt>
      <trkpt lat="44.68895" lon="5.48018">
        <ele>570.6796875</ele>
        <time>2013-08-08T15:59:49Z</time>
      </trkpt>
      <trkpt lat="44.68895" lon="5.48025">
        <ele>570.19897460938</ele>
        <time>2013-08-08T15:59:53Z</time>
      </trkpt>
      <trkpt lat="44.68894" lon="5.48033">
        <ele>570.6796875</ele>
        <time>2013-08-08T15:59:58Z</time>
      </trkpt>
      <trkpt lat="44.68884" lon="5.48037">
        <ele>570.6796875</ele>
        <time>2013-08-08T16:00:07Z</time>
      </trkpt>
      <trkpt lat="44.68873" lon="5.48047">
        <ele>570.19897460938</ele>
        <time>2013-08-08T16:00:22Z</time>
      </trkpt>
      <trkpt lat="44.68884" lon="5.48057">
        <ele>567.31518554688</ele>
        <time>2013-08-08T16:00:33Z</time>
      </trkpt>
      <trkpt lat="44.68886" lon="5.48067">
        <ele>566.83447265625</ele>
        <time>2013-08-08T16:00:41Z</time>
      </trkpt>
      <trkpt lat="44.68885" lon="5.48072">
        <ele>566.83447265625</ele>
        <time>2013-08-08T16:00:44Z</time>
      </trkpt>
      <trkpt lat="44.68889" lon="5.48077">
        <ele>566.83447265625</ele>
        <time>2013-08-08T16:00:55Z</time>
      </trkpt>
      <trkpt lat="44.68889" lon="5.48081">
        <ele>566.83447265625</ele>
        <time>2013-08-08T16:01:03Z</time>
      </trkpt>
      <trkpt lat="44.68893" lon="5.48086">
        <ele>566.83447265625</ele>
        <time>2013-08-08T16:01:06Z</time>
      </trkpt>
      <trkpt lat="44.68896" lon="5.48092">
        <ele>566.83447265625</ele>
        <time>2013-08-08T16:01:11Z</time>
      </trkpt>
      <trkpt lat="44.68901" lon="5.48102">
        <ele>566.83447265625</ele>
        <time>2013-08-08T16:01:20Z</time>
      </trkpt>
      <trkpt lat="44.6891" lon="5.48115">
        <ele>566.83447265625</ele>
        <time>2013-08-08T16:01:30Z</time>
      </trkpt>
      <trkpt lat="44.68912" lon="5.48118">
        <ele>566.83447265625</ele>
        <time>2013-08-08T16:01:36Z</time>
      </trkpt>
      <trkpt lat="44.68915" lon="5.48122">
        <ele>566.83447265625</ele>
        <time>2013-08-08T16:01:39Z</time>
      </trkpt>
      <trkpt lat="44.68916" lon="5.48126">
        <ele>566.35375976562</ele>
        <time>2013-08-08T16:01:43Z</time>
      </trkpt>
      <trkpt lat="44.68912" lon="5.48132">
        <ele>565.87329101562</ele>
        <time>2013-08-08T16:01:49Z</time>
      </trkpt>
      <trkpt lat="44.68924" lon="5.48156">
        <ele>566.35375976562</ele>
        <time>2013-08-08T16:01:58Z</time>
      </trkpt>
      <trkpt lat="44.68925" lon="5.48165">
        <ele>566.35375976562</ele>
        <time>2013-08-08T16:02:02Z</time>
      </trkpt>
      <trkpt lat="44.68931" lon="5.48176">
        <ele>566.83447265625</ele>
        <time>2013-08-08T16:02:22Z</time>
      </trkpt>
      <trkpt lat="44.68934" lon="5.48184">
        <ele>566.83447265625</ele>
        <time>2013-08-08T16:02:33Z</time>
      </trkpt>
      <trkpt lat="44.68938" lon="5.4819">
        <ele>566.83447265625</ele>
        <time>2013-08-08T16:02:37Z</time>
      </trkpt>
      <trkpt lat="44.68938" lon="5.48198">
        <ele>566.83447265625</ele>
        <time>2013-08-08T16:02:42Z</time>
      </trkpt>
      <trkpt lat="44.68939" lon="5.48203">
        <ele>567.31518554688</ele>
        <time>2013-08-08T16:02:44Z</time>
      </trkpt>
      <trkpt lat="44.68943" lon="5.48216">
        <ele>567.31518554688</ele>
        <time>2013-08-08T16:02:53Z</time>
      </trkpt>
      <trkpt lat="44.68947" lon="5.48216">
        <ele>566.83447265625</ele>
        <time>2013-08-08T16:02:56Z</time>
      </trkpt>
      <trkpt lat="44.6895" lon="5.4822">
        <ele>567.31518554688</ele>
        <time>2013-08-08T16:02:59Z</time>
      </trkpt>
      <trkpt lat="44.68951" lon="5.48224">
        <ele>567.31518554688</ele>
        <time>2013-08-08T16:03:03Z</time>
      </trkpt>
      <trkpt lat="44.68955" lon="5.4823">
        <ele>566.83447265625</ele>
        <time>2013-08-08T16:03:10Z</time>
      </trkpt>
      <trkpt lat="44.68963" lon="5.48236">
        <ele>566.35375976562</ele>
        <time>2013-08-08T16:03:21Z</time>
      </trkpt>
      <trkpt lat="44.6897" lon="5.48241">
        <ele>565.392578125</ele>
        <time>2013-08-08T16:03:26Z</time>
      </trkpt>
      <trkpt lat="44.68982" lon="5.48252">
        <ele>563.46997070312</ele>
        <time>2013-08-08T16:03:34Z</time>
      </trkpt>
      <trkpt lat="44.68989" lon="5.48256">
        <ele>563.46997070312</ele>
        <time>2013-08-08T16:03:40Z</time>
      </trkpt>
      <trkpt lat="44.68996" lon="5.48264">
        <ele>562.02807617188</ele>
        <time>2013-08-08T16:03:44Z</time>
      </trkpt>
      <trkpt lat="44.68999" lon="5.48265">
        <ele>562.02807617188</ele>
        <time>2013-08-08T16:03:48Z</time>
      </trkpt>
      <trkpt lat="44.69011" lon="5.4827">
        <ele>560.5859375</ele>
        <time>2013-08-08T16:03:56Z</time>
      </trkpt>
      <trkpt lat="44.69013" lon="5.4827">
        <ele>561.06665039062</ele>
        <time>2013-08-08T16:03:57Z</time>
      </trkpt>
      <trkpt lat="44.69017" lon="5.48277">
        <ele>561.06665039062</ele>
        <time>2013-08-08T16:04:13Z</time>
      </trkpt>
      <trkpt lat="44.69021" lon="5.48276">
        <ele>560.10522460938</ele>
        <time>2013-08-08T16:04:22Z</time>
      </trkpt>
      <trkpt lat="44.69024" lon="5.48279">
        <ele>559.62475585938</ele>
        <time>2013-08-08T16:04:25Z</time>
      </trkpt>
      <trkpt lat="44.69034" lon="5.48297">
        <ele>559.62475585938</ele>
        <time>2013-08-08T16:04:41Z</time>
      </trkpt>
      <trkpt lat="44.69034" lon="5.48303">
        <ele>560.10522460938</ele>
        <time>2013-08-08T16:04:46Z</time>
      </trkpt>
      <trkpt lat="44.69045" lon="5.4831">
        <ele>559.62475585938</ele>
        <time>2013-08-08T16:04:56Z</time>
      </trkpt>
      <trkpt lat="44.69054" lon="5.48321">
        <ele>559.62475585938</ele>
        <time>2013-08-08T16:05:03Z</time>
      </trkpt>
      <trkpt lat="44.69062" lon="5.48336">
        <ele>559.62475585938</ele>
        <time>2013-08-08T16:05:13Z</time>
      </trkpt>
      <trkpt lat="44.69062" lon="5.48343">
        <ele>559.14404296875</ele>
        <time>2013-08-08T16:05:18Z</time>
      </trkpt>
      <trkpt lat="44.69064" lon="5.48347">
        <ele>559.62475585938</ele>
        <time>2013-08-08T16:05:22Z</time>
      </trkpt>
      <trkpt lat="44.69072" lon="5.4835">
        <ele>559.62475585938</ele>
        <time>2013-08-08T16:05:27Z</time>
      </trkpt>
      <trkpt lat="44.69082" lon="5.48354">
        <ele>559.62475585938</ele>
        <time>2013-08-08T16:05:33Z</time>
      </trkpt>
      <trkpt lat="44.69091" lon="5.48358">
        <ele>559.14404296875</ele>
        <time>2013-08-08T16:05:39Z</time>
      </trkpt>
      <trkpt lat="44.69093" lon="5.48362">
        <ele>558.66333007812</ele>
        <time>2013-08-08T16:05:42Z</time>
      </trkpt>
      <trkpt lat="44.69094" lon="5.48367">
        <ele>558.66333007812</ele>
        <time>2013-08-08T16:05:45Z</time>
      </trkpt>
      <trkpt lat="44.691" lon="5.48367">
        <ele>558.66333007812</ele>
        <time>2013-08-08T16:05:51Z</time>
      </trkpt>
      <trkpt lat="44.69112" lon="5.48371">
        <ele>559.14404296875</ele>
        <time>2013-08-08T16:06:00Z</time>
      </trkpt>
      <trkpt lat="44.69116" lon="5.48374">
        <ele>558.66333007812</ele>
        <time>2013-08-08T16:06:03Z</time>
      </trkpt>
      <trkpt lat="44.69125" lon="5.48372">
        <ele>558.66333007812</ele>
        <time>2013-08-08T16:06:11Z</time>
      </trkpt>
      <trkpt lat="44.69128" lon="5.48373">
        <ele>557.7021484375</ele>
        <time>2013-08-08T16:06:13Z</time>
      </trkpt>
      <trkpt lat="44.69138" lon="5.48379">
        <ele>558.18286132812</ele>
        <time>2013-08-08T16:06:26Z</time>
      </trkpt>
      <trkpt lat="44.69149" lon="5.48385">
        <ele>558.18286132812</ele>
        <time>2013-08-08T16:06:37Z</time>
      </trkpt>
      <trkpt lat="44.69164" lon="5.48387">
        <ele>558.18286132812</ele>
        <time>2013-08-08T16:06:49Z</time>
      </trkpt>
      <trkpt lat="44.69176" lon="5.48391">
        <ele>558.66333007812</ele>
        <time>2013-08-08T16:07:00Z</time>
      </trkpt>
      <trkpt lat="44.69187" lon="5.48399">
        <ele>558.66333007812</ele>
        <time>2013-08-08T16:07:08Z</time>
      </trkpt>
      <trkpt lat="44.69189" lon="5.48401">
        <ele>558.66333007812</ele>
        <time>2013-08-08T16:07:10Z</time>
      </trkpt>
      <trkpt lat="44.69194" lon="5.48404">
        <ele>558.18286132812</ele>
        <time>2013-08-08T16:07:13Z</time>
      </trkpt>
      <trkpt lat="44.69198" lon="5.48408">
        <ele>558.66333007812</ele>
        <time>2013-08-08T16:07:17Z</time>
      </trkpt>
      <trkpt lat="44.69212" lon="5.48439">
        <ele>560.5859375</ele>
        <time>2013-08-08T16:07:39Z</time>
      </trkpt>
      <trkpt lat="44.69221" lon="5.48465">
        <ele>561.06665039062</ele>
        <time>2013-08-08T16:07:58Z</time>
      </trkpt>
      <trkpt lat="44.69223" lon="5.48467">
        <ele>561.06665039062</ele>
        <time>2013-08-08T16:08:00Z</time>
      </trkpt>
      <trkpt lat="44.69241" lon="5.48498">
        <ele>562.02807617188</ele>
        <time>2013-08-08T16:08:23Z</time>
      </trkpt>
      <trkpt lat="44.69252" lon="5.48518">
        <ele>562.50854492188</ele>
        <time>2013-08-08T16:08:40Z</time>
      </trkpt>
      <trkpt lat="44.69254" lon="5.4853">
        <ele>562.9892578125</ele>
        <time>2013-08-08T16:08:52Z</time>
      </trkpt>
      <trkpt lat="44.69256" lon="5.48537">
        <ele>562.02807617188</ele>
        <time>2013-08-08T16:09:15Z</time>
      </trkpt>
      <trkpt lat="44.69258" lon="5.48545">
        <ele>561.06665039062</ele>
        <time>2013-08-08T16:09:20Z</time>
      </trkpt>
      <trkpt lat="44.6926" lon="5.48553">
        <ele>559.62475585938</ele>
        <time>2013-08-08T16:09:24Z</time>
      </trkpt>
      <trkpt lat="44.69264" lon="5.48563">
        <ele>558.66333007812</ele>
        <time>2013-08-08T16:09:35Z</time>
      </trkpt>
      <trkpt lat="44.69268" lon="5.48564">
        <ele>557.7021484375</ele>
        <time>2013-08-08T16:09:39Z</time>
      </trkpt>
      <trkpt lat="44.69275" lon="5.48561">
        <ele>555.779296875</ele>
        <time>2013-08-08T16:09:47Z</time>
      </trkpt>
      <trkpt lat="44.69297" lon="5.48536">
        <ele>555.779296875</ele>
        <time>2013-08-08T16:10:08Z</time>
      </trkpt>
      <trkpt lat="44.69303" lon="5.48528">
        <ele>554.33740234375</ele>
        <time>2013-08-08T16:10:27Z</time>
      </trkpt>
      <trkpt lat="44.69312" lon="5.4853">
        <ele>554.81787109375</ele>
        <time>2013-08-08T16:10:37Z</time>
      </trkpt>
      <trkpt lat="44.69328" lon="5.48533">
        <ele>554.33740234375</ele>
        <time>2013-08-08T16:10:52Z</time>
      </trkpt>
      <trkpt lat="44.69331" lon="5.48539">
        <ele>554.33740234375</ele>
        <time>2013-08-08T16:11:04Z</time>
      </trkpt>
      <trkpt lat="44.69327" lon="5.48535">
        <ele>553.85668945312</ele>
        <time>2013-08-08T16:11:08Z</time>
      </trkpt>
      <trkpt lat="44.6933" lon="5.48513">
        <ele>554.33740234375</ele>
        <time>2013-08-08T16:11:24Z</time>
      </trkpt>
      <trkpt lat="44.69333" lon="5.48508">
        <ele>554.33740234375</ele>
        <time>2013-08-08T16:11:28Z</time>
      </trkpt>
      <trkpt lat="44.69356" lon="5.48487">
        <ele>554.33740234375</ele>
        <time>2013-08-08T16:11:49Z</time>
      </trkpt>
      <trkpt lat="44.6936" lon="5.48485">
        <ele>554.81787109375</ele>
        <time>2013-08-08T16:11:54Z</time>
      </trkpt>
      <trkpt lat="44.69375" lon="5.48472">
        <ele>556.26000976562</ele>
        <time>2013-08-08T16:12:13Z</time>
      </trkpt>
      <trkpt lat="44.69382" lon="5.48467">
        <ele>556.74072265625</ele>
        <time>2013-08-08T16:13:30Z</time>
      </trkpt>
      <trkpt lat="44.69396" lon="5.48456">
        <ele>558.66333007812</ele>
        <time>2013-08-08T16:14:20Z</time>
      </trkpt>
      <trkpt lat="44.69396" lon="5.48458">
        <ele>559.62475585938</ele>
        <time>2013-08-08T16:15:33Z</time>
      </trkpt>
      <trkpt lat="44.69395" lon="5.48455">
        <ele>559.14404296875</ele>
        <time>2013-08-08T16:17:05Z</time>
      </trkpt>
      <trkpt lat="44.69396" lon="5.48458">
        <ele>559.62475585938</ele>
        <time>2013-08-08T16:19:37Z</time>
      </trkpt>
      <trkpt lat="44.694" lon="5.48455">
        <ele>559.62475585938</ele>
        <time>2013-08-08T16:20:26Z</time>
      </trkpt>
      <trkpt lat="44.69411" lon="5.48452">
        <ele>562.50854492188</ele>
        <time>2013-08-08T16:20:39Z</time>
      </trkpt>
      <trkpt lat="44.69419" lon="5.48459">
        <ele>565.87329101562</ele>
        <time>2013-08-08T16:20:54Z</time>
      </trkpt>
      <trkpt lat="44.69419" lon="5.48464">
        <ele>565.87329101562</ele>
        <time>2013-08-08T16:20:57Z</time>
      </trkpt>
      <trkpt lat="44.6942" lon="5.48471">
        <ele>565.87329101562</ele>
        <time>2013-08-08T16:21:02Z</time>
      </trkpt>
      <trkpt lat="44.69424" lon="5.48479">
        <ele>565.87329101562</ele>
        <time>2013-08-08T16:21:06Z</time>
      </trkpt>
      <trkpt lat="44.69427" lon="5.48484">
        <ele>565.87329101562</ele>
        <time>2013-08-08T16:21:08Z</time>
      </trkpt>
      <trkpt lat="44.69416" lon="5.48488">
        <ele>565.87329101562</ele>
        <time>2013-08-08T16:21:13Z</time>
      </trkpt>
      <trkpt lat="44.69418" lon="5.48495">
        <ele>565.392578125</ele>
        <time>2013-08-08T16:21:17Z</time>
      </trkpt>
      <trkpt lat="44.69418" lon="5.48512">
        <ele>565.392578125</ele>
        <time>2013-08-08T16:21:27Z</time>
      </trkpt>
      <trkpt lat="44.69421" lon="5.48528">
        <ele>565.392578125</ele>
        <time>2013-08-08T16:21:37Z</time>
      </trkpt>
      <trkpt lat="44.69425" lon="5.48562">
        <ele>564.91186523438</ele>
        <time>2013-08-08T16:21:58Z</time>
      </trkpt>
      <trkpt lat="44.69442" lon="5.48559">
        <ele>564.91186523438</ele>
        <time>2013-08-08T16:22:12Z</time>
      </trkpt>
      <trkpt lat="44.69453" lon="5.48564">
        <ele>565.392578125</ele>
        <time>2013-08-08T16:22:20Z</time>
      </trkpt>
      <trkpt lat="44.69465" lon="5.48572">
        <ele>567.31518554688</ele>
        <time>2013-08-08T16:22:34Z</time>
      </trkpt>
      <trkpt lat="44.69467" lon="5.48575">
        <ele>567.79565429688</ele>
        <time>2013-08-08T16:22:36Z</time>
      </trkpt>
      <trkpt lat="44.69481" lon="5.48584">
        <ele>568.75708007812</ele>
        <time>2013-08-08T16:22:49Z</time>
      </trkpt>
      <trkpt lat="44.69484" lon="5.48585">
        <ele>569.23779296875</ele>
        <time>2013-08-08T16:22:51Z</time>
      </trkpt>
      <trkpt lat="44.69493" lon="5.48586">
        <ele>570.19897460938</ele>
        <time>2013-08-08T16:23:02Z</time>
      </trkpt>
      <trkpt lat="44.69505" lon="5.48589">
        <ele>572.12182617188</ele>
        <time>2013-08-08T16:23:15Z</time>
      </trkpt>
      <trkpt lat="44.69515" lon="5.48591">
        <ele>574.52514648438</ele>
        <time>2013-08-08T16:23:31Z</time>
      </trkpt>
      <trkpt lat="44.69517" lon="5.4858">
        <ele>574.52514648438</ele>
        <time>2013-08-08T16:23:38Z</time>
      </trkpt>
      <trkpt lat="44.69514" lon="5.48568">
        <ele>575.005859375</ele>
        <time>2013-08-08T16:23:45Z</time>
      </trkpt>
      <trkpt lat="44.69516" lon="5.48563">
        <ele>575.486328125</ele>
        <time>2013-08-08T16:23:59Z</time>
      </trkpt>
      <trkpt lat="44.69514" lon="5.48549">
        <ele>575.486328125</ele>
        <time>2013-08-08T16:24:33Z</time>
      </trkpt>
      <trkpt lat="44.69515" lon="5.48541">
        <ele>575.005859375</ele>
        <time>2013-08-08T16:24:38Z</time>
      </trkpt>
      <trkpt lat="44.69514" lon="5.48529">
        <ele>575.005859375</ele>
        <time>2013-08-08T16:24:45Z</time>
      </trkpt>
      <trkpt lat="44.69512" lon="5.48517">
        <ele>575.005859375</ele>
        <time>2013-08-08T16:24:52Z</time>
      </trkpt>
      <trkpt lat="44.69513" lon="5.48512">
        <ele>575.005859375</ele>
        <time>2013-08-08T16:25:09Z</time>
      </trkpt>
      <trkpt lat="44.69509" lon="5.485">
        <ele>575.486328125</ele>
        <time>2013-08-08T16:25:21Z</time>
      </trkpt>
      <trkpt lat="44.69503" lon="5.48479">
        <ele>576.44775390625</ele>
        <time>2013-08-08T16:25:39Z</time>
      </trkpt>
      <trkpt lat="44.69502" lon="5.48471">
        <ele>576.92846679688</ele>
        <time>2013-08-08T16:26:25Z</time>
      </trkpt>
      <trkpt lat="44.69501" lon="5.48464">
        <ele>577.4091796875</ele>
        <time>2013-08-08T16:26:30Z</time>
      </trkpt>
      <trkpt lat="44.69498" lon="5.48451">
        <ele>577.4091796875</ele>
        <time>2013-08-08T16:26:42Z</time>
      </trkpt>
      <trkpt lat="44.69493" lon="5.48432">
        <ele>578.37036132812</ele>
        <time>2013-08-08T16:26:56Z</time>
      </trkpt>
      <trkpt lat="44.69489" lon="5.48415">
        <ele>578.37036132812</ele>
        <time>2013-08-08T16:27:09Z</time>
      </trkpt>
      <trkpt lat="44.69486" lon="5.48407">
        <ele>578.85107421875</ele>
        <time>2013-08-08T16:27:22Z</time>
      </trkpt>
      <trkpt lat="44.69489" lon="5.48406">
        <ele>578.37036132812</ele>
        <time>2013-08-08T16:27:36Z</time>
      </trkpt>
      <trkpt lat="44.6949" lon="5.48403">
        <ele>578.37036132812</ele>
        <time>2013-08-08T16:27:52Z</time>
      </trkpt>
      <trkpt lat="44.69489" lon="5.48393">
        <ele>578.37036132812</ele>
        <time>2013-08-08T16:28:00Z</time>
      </trkpt>
      <trkpt lat="44.69486" lon="5.48385">
        <ele>578.37036132812</ele>
        <time>2013-08-08T16:28:06Z</time>
      </trkpt>
      <trkpt lat="44.69483" lon="5.48375">
        <ele>578.37036132812</ele>
        <time>2013-08-08T16:28:13Z</time>
      </trkpt>
      <trkpt lat="44.69483" lon="5.48366">
        <ele>578.37036132812</ele>
        <time>2013-08-08T16:28:19Z</time>
      </trkpt>
      <trkpt lat="44.69481" lon="5.48353">
        <ele>577.8896484375</ele>
        <time>2013-08-08T16:28:29Z</time>
      </trkpt>
      <trkpt lat="44.69481" lon="5.48348">
        <ele>578.37036132812</ele>
        <time>2013-08-08T16:28:54Z</time>
      </trkpt>
      <trkpt lat="44.69477" lon="5.48338">
        <ele>578.37036132812</ele>
        <time>2013-08-08T16:29:01Z</time>
      </trkpt>
      <trkpt lat="44.69473" lon="5.48332">
        <ele>577.8896484375</ele>
        <time>2013-08-08T16:29:14Z</time>
      </trkpt>
      <trkpt lat="44.69471" lon="5.48325">
        <ele>577.4091796875</ele>
        <time>2013-08-08T16:29:29Z</time>
      </trkpt>
      <trkpt lat="44.69469" lon="5.48321">
        <ele>577.4091796875</ele>
        <time>2013-08-08T16:29:44Z</time>
      </trkpt>
      <trkpt lat="44.69464" lon="5.48301">
        <ele>576.92846679688</ele>
        <time>2013-08-08T16:30:04Z</time>
      </trkpt>
      <trkpt lat="44.69462" lon="5.48292">
        <ele>576.44775390625</ele>
        <time>2013-08-08T16:30:10Z</time>
      </trkpt>
      <trkpt lat="44.69463" lon="5.48286">
        <ele>576.44775390625</ele>
        <time>2013-08-08T16:30:13Z</time>
      </trkpt>
      <trkpt lat="44.69464" lon="5.48281">
        <ele>576.44775390625</ele>
        <time>2013-08-08T16:30:20Z</time>
      </trkpt>
      <trkpt lat="44.69461" lon="5.48274">
        <ele>576.44775390625</ele>
        <time>2013-08-08T16:30:24Z</time>
      </trkpt>
      <trkpt lat="44.69459" lon="5.48267">
        <ele>575.486328125</ele>
        <time>2013-08-08T16:30:36Z</time>
      </trkpt>
      <trkpt lat="44.69455" lon="5.48265">
        <ele>575.486328125</ele>
        <time>2013-08-08T16:30:56Z</time>
      </trkpt>
      <trkpt lat="44.69455" lon="5.48259">
        <ele>575.96704101562</ele>
        <time>2013-08-08T16:31:02Z</time>
      </trkpt>
      <trkpt lat="44.69453" lon="5.48249">
        <ele>575.96704101562</ele>
        <time>2013-08-08T16:31:07Z</time>
      </trkpt>
      <trkpt lat="44.6945" lon="5.48246">
        <ele>575.486328125</ele>
        <time>2013-08-08T16:31:11Z</time>
      </trkpt>
      <trkpt lat="44.69444" lon="5.48244">
        <ele>575.005859375</ele>
        <time>2013-08-08T16:31:15Z</time>
      </trkpt>
      <trkpt lat="44.69438" lon="5.48247">
        <ele>575.486328125</ele>
        <time>2013-08-08T16:31:20Z</time>
      </trkpt>
      <trkpt lat="44.69431" lon="5.48247">
        <ele>575.486328125</ele>
        <time>2013-08-08T16:31:27Z</time>
      </trkpt>
      <trkpt lat="44.6942" lon="5.48235">
        <ele>575.486328125</ele>
        <time>2013-08-08T16:31:38Z</time>
      </trkpt>
      <trkpt lat="44.69418" lon="5.48234">
        <ele>575.486328125</ele>
        <time>2013-08-08T16:31:40Z</time>
      </trkpt>
      <trkpt lat="44.69396" lon="5.48202">
        <ele>575.005859375</ele>
        <time>2013-08-08T16:32:04Z</time>
      </trkpt>
      <trkpt lat="44.69378" lon="5.48175">
        <ele>574.04443359375</ele>
        <time>2013-08-08T16:32:25Z</time>
      </trkpt>
      <trkpt lat="44.69359" lon="5.4814">
        <ele>572.6025390625</ele>
        <time>2013-08-08T16:32:50Z</time>
      </trkpt>
      <trkpt lat="44.69346" lon="5.48108">
        <ele>569.23779296875</ele>
        <time>2013-08-08T16:33:10Z</time>
      </trkpt>
      <trkpt lat="44.69336" lon="5.48084">
        <ele>568.2763671875</ele>
        <time>2013-08-08T16:33:26Z</time>
      </trkpt>
      <trkpt lat="44.69322" lon="5.48057">
        <ele>567.79565429688</ele>
        <time>2013-08-08T16:33:46Z</time>
      </trkpt>
      <trkpt lat="44.69319" lon="5.48045">
        <ele>567.31518554688</ele>
        <time>2013-08-08T16:34:04Z</time>
      </trkpt>
      <trkpt lat="44.69315" lon="5.48034">
        <ele>566.35375976562</ele>
        <time>2013-08-08T16:34:20Z</time>
      </trkpt>
      <trkpt lat="44.69304" lon="5.47994">
        <ele>564.91186523438</ele>
        <time>2013-08-08T16:34:44Z</time>
      </trkpt>
      <trkpt lat="44.69292" lon="5.47952">
        <ele>563.46997070312</ele>
        <time>2013-08-08T16:35:10Z</time>
      </trkpt>
      <trkpt lat="44.69288" lon="5.47936">
        <ele>562.50854492188</ele>
        <time>2013-08-08T16:35:25Z</time>
      </trkpt>
      <trkpt lat="44.69274" lon="5.47884">
        <ele>560.10522460938</ele>
        <time>2013-08-08T16:35:55Z</time>
      </trkpt>
      <trkpt lat="44.69269" lon="5.47866">
        <ele>559.14404296875</ele>
        <time>2013-08-08T16:36:06Z</time>
      </trkpt>
      <trkpt lat="44.69266" lon="5.47858">
        <ele>558.66333007812</ele>
        <time>2013-08-08T16:36:11Z</time>
      </trkpt>
      <trkpt lat="44.69264" lon="5.47846">
        <ele>558.66333007812</ele>
        <time>2013-08-08T16:36:18Z</time>
      </trkpt>
      <trkpt lat="44.69249" lon="5.47808">
        <ele>557.22143554688</ele>
        <time>2013-08-08T16:36:40Z</time>
      </trkpt>
      <trkpt lat="44.6924" lon="5.47777">
        <ele>556.74072265625</ele>
        <time>2013-08-08T16:36:58Z</time>
      </trkpt>
      <trkpt lat="44.69236" lon="5.47766">
        <ele>555.779296875</ele>
        <time>2013-08-08T16:37:05Z</time>
      </trkpt>
      <trkpt lat="44.69235" lon="5.47761">
        <ele>555.779296875</ele>
        <time>2013-08-08T16:37:08Z</time>
      </trkpt>
      <trkpt lat="44.69231" lon="5.47748">
        <ele>554.81787109375</ele>
        <time>2013-08-08T16:37:17Z</time>
      </trkpt>
      <trkpt lat="44.69219" lon="5.47721">
        <ele>553.85668945312</ele>
        <time>2013-08-08T16:37:35Z</time>
      </trkpt>
      <trkpt lat="44.6921" lon="5.47704">
        <ele>554.33740234375</ele>
        <time>2013-08-08T16:37:46Z</time>
      </trkpt>
      <trkpt lat="44.69203" lon="5.47697">
        <ele>553.3759765625</ele>
        <time>2013-08-08T16:37:53Z</time>
      </trkpt>
      <trkpt lat="44.69182" lon="5.47646">
        <ele>552.41455078125</ele>
        <time>2013-08-08T16:38:24Z</time>
      </trkpt>
      <trkpt lat="44.69165" lon="5.47601">
        <ele>550.4921875</ele>
        <time>2013-08-08T16:38:52Z</time>
      </trkpt>
      <trkpt lat="44.69148" lon="5.47556">
        <ele>549.53076171875</ele>
        <time>2013-08-08T16:39:20Z</time>
      </trkpt>
      <trkpt lat="44.69133" lon="5.47518">
        <ele>548.5693359375</ele>
        <time>2013-08-08T16:39:43Z</time>
      </trkpt>
      <trkpt lat="44.69119" lon="5.4748">
        <ele>548.0888671875</ele>
        <time>2013-08-08T16:40:05Z</time>
      </trkpt>
      <trkpt lat="44.69102" lon="5.47436">
        <ele>547.60815429688</ele>
        <time>2013-08-08T16:40:32Z</time>
      </trkpt>
      <trkpt lat="44.69087" lon="5.47399">
        <ele>547.12744140625</ele>
        <time>2013-08-08T16:40:55Z</time>
      </trkpt>
      <trkpt lat="44.69073" lon="5.47359">
        <ele>547.12744140625</ele>
        <time>2013-08-08T16:41:18Z</time>
      </trkpt>
      <trkpt lat="44.69058" lon="5.47322">
        <ele>546.16625976562</ele>
        <time>2013-08-08T16:41:42Z</time>
      </trkpt>
      <trkpt lat="44.69042" lon="5.47281">
        <ele>546.16625976562</ele>
        <time>2013-08-08T16:42:08Z</time>
      </trkpt>
      <trkpt lat="44.6903" lon="5.47248">
        <ele>545.20483398438</ele>
        <time>2013-08-08T16:42:30Z</time>
      </trkpt>
      <trkpt lat="44.69011" lon="5.47202">
        <ele>544.72424316406</ele>
        <time>2013-08-08T16:42:59Z</time>
      </trkpt>
      <trkpt lat="44.68996" lon="5.47163">
        <ele>544.24365234375</ele>
        <time>2013-08-08T16:43:25Z</time>
      </trkpt>
      <trkpt lat="44.68993" lon="5.47154">
        <ele>544.24365234375</ele>
        <time>2013-08-08T16:43:31Z</time>
      </trkpt>
      <trkpt lat="44.68982" lon="5.47126">
        <ele>543.76281738281</ele>
        <time>2013-08-08T16:43:53Z</time>
      </trkpt>
      <trkpt lat="44.68975" lon="5.47107">
        <ele>543.28210449219</ele>
        <time>2013-08-08T16:44:09Z</time>
      </trkpt>
      <trkpt lat="44.6897" lon="5.47095">
        <ele>543.28210449219</ele>
        <time>2013-08-08T16:44:28Z</time>
      </trkpt>
      <trkpt lat="44.68956" lon="5.47056">
        <ele>542.80151367188</ele>
        <time>2013-08-08T16:44:55Z</time>
      </trkpt>
      <trkpt lat="44.68953" lon="5.4705">
        <ele>542.80151367188</ele>
        <time>2013-08-08T16:44:59Z</time>
      </trkpt>
      <trkpt lat="44.68951" lon="5.47046">
        <ele>543.28210449219</ele>
        <time>2013-08-08T16:45:02Z</time>
      </trkpt>
      <trkpt lat="44.68942" lon="5.47027">
        <ele>542.80151367188</ele>
        <time>2013-08-08T16:45:18Z</time>
      </trkpt>
      <trkpt lat="44.68929" lon="5.46994">
        <ele>542.32092285156</ele>
        <time>2013-08-08T16:45:41Z</time>
      </trkpt>
      <trkpt lat="44.68928" lon="5.46996">
        <ele>542.32092285156</ele>
        <time>2013-08-08T16:45:58Z</time>
      </trkpt>
      <trkpt lat="44.68923" lon="5.46979">
        <ele>542.32092285156</ele>
        <time>2013-08-08T16:46:21Z</time>
      </trkpt>
      <trkpt lat="44.6891" lon="5.46945">
        <ele>541.84020996094</ele>
        <time>2013-08-08T16:46:43Z</time>
      </trkpt>
      <trkpt lat="44.68894" lon="5.46907">
        <ele>541.84020996094</ele>
        <time>2013-08-08T16:47:07Z</time>
      </trkpt>
      <trkpt lat="44.68881" lon="5.46866">
        <ele>541.35949707031</ele>
        <time>2013-08-08T16:47:31Z</time>
      </trkpt>
      <trkpt lat="44.68876" lon="5.46855">
        <ele>540.87890625</ele>
        <time>2013-08-08T16:47:49Z</time>
      </trkpt>
      <trkpt lat="44.68867" lon="5.46833">
        <ele>541.35949707031</ele>
        <time>2013-08-08T16:48:05Z</time>
      </trkpt>
      <trkpt lat="44.68853" lon="5.46785">
        <ele>540.87890625</ele>
        <time>2013-08-08T16:48:32Z</time>
      </trkpt>
      <trkpt lat="44.68842" lon="5.46756">
        <ele>539.91760253906</ele>
        <time>2013-08-08T16:48:50Z</time>
      </trkpt>
      <trkpt lat="44.68829" lon="5.46721">
        <ele>539.91760253906</ele>
        <time>2013-08-08T16:49:11Z</time>
      </trkpt>
      <trkpt lat="44.68816" lon="5.46688">
        <ele>538.95629882812</ele>
        <time>2013-08-08T16:49:31Z</time>
      </trkpt>
      <trkpt lat="44.68802" lon="5.46654">
        <ele>538.47570800781</ele>
        <time>2013-08-08T16:49:53Z</time>
      </trkpt>
      <trkpt lat="44.68785" lon="5.46608">
        <ele>537.99499511719</ele>
        <time>2013-08-08T16:50:21Z</time>
      </trkpt>
      <trkpt lat="44.6877" lon="5.46567">
        <ele>537.99499511719</ele>
        <time>2013-08-08T16:50:45Z</time>
      </trkpt>
      <trkpt lat="44.68767" lon="5.46558">
        <ele>537.51428222656</ele>
        <time>2013-08-08T16:51:00Z</time>
      </trkpt>
      <trkpt lat="44.68756" lon="5.46536">
        <ele>537.51428222656</ele>
        <time>2013-08-08T16:51:14Z</time>
      </trkpt>
      <trkpt lat="44.68749" lon="5.46519">
        <ele>537.99499511719</ele>
        <time>2013-08-08T16:51:25Z</time>
      </trkpt>
      <trkpt lat="44.68735" lon="5.46492">
        <ele>537.03369140625</ele>
        <time>2013-08-08T16:51:43Z</time>
      </trkpt>
      <trkpt lat="44.68716" lon="5.46442">
        <ele>536.07238769531</ele>
        <time>2013-08-08T16:52:13Z</time>
      </trkpt>
      <trkpt lat="44.68709" lon="5.46397">
        <ele>535.59155273438</ele>
        <time>2013-08-08T16:52:38Z</time>
      </trkpt>
      <trkpt lat="44.68705" lon="5.46368">
        <ele>535.59155273438</ele>
        <time>2013-08-08T16:52:54Z</time>
      </trkpt>
      <trkpt lat="44.68701" lon="5.46339">
        <ele>535.59155273438</ele>
        <time>2013-08-08T16:53:12Z</time>
      </trkpt>
      <trkpt lat="44.68701" lon="5.46333">
        <ele>535.11096191406</ele>
        <time>2013-08-08T16:53:28Z</time>
      </trkpt>
      <trkpt lat="44.68697" lon="5.46298">
        <ele>535.11096191406</ele>
        <time>2013-08-08T16:53:47Z</time>
      </trkpt>
      <trkpt lat="44.6869" lon="5.46248">
        <ele>534.63037109375</ele>
        <time>2013-08-08T16:54:15Z</time>
      </trkpt>
      <trkpt lat="44.68688" lon="5.46238">
        <ele>534.63037109375</ele>
        <time>2013-08-08T16:54:32Z</time>
      </trkpt>
      <trkpt lat="44.68686" lon="5.4623">
        <ele>534.63037109375</ele>
        <time>2013-08-08T16:54:51Z</time>
      </trkpt>
      <trkpt lat="44.68685" lon="5.46224">
        <ele>534.63037109375</ele>
        <time>2013-08-08T16:54:55Z</time>
      </trkpt>
      <trkpt lat="44.68683" lon="5.46201">
        <ele>534.14965820312</ele>
        <time>2013-08-08T16:55:14Z</time>
      </trkpt>
      <trkpt lat="44.68685" lon="5.46204">
        <ele>534.63037109375</ele>
        <time>2013-08-08T16:55:24Z</time>
      </trkpt>
      <trkpt lat="44.68683" lon="5.46191">
        <ele>534.63037109375</ele>
        <time>2013-08-08T16:55:34Z</time>
      </trkpt>
      <trkpt lat="44.68682" lon="5.46184">
        <ele>534.14965820312</ele>
        <time>2013-08-08T16:55:46Z</time>
      </trkpt>
      <trkpt lat="44.68684" lon="5.46146">
        <ele>533.6689453125</ele>
        <time>2013-08-08T16:56:28Z</time>
      </trkpt>
      <trkpt lat="44.68673" lon="5.46122">
        <ele>533.6689453125</ele>
        <time>2013-08-08T16:56:46Z</time>
      </trkpt>
      <trkpt lat="44.6867" lon="5.46101">
        <ele>533.18835449219</ele>
        <time>2013-08-08T16:57:02Z</time>
      </trkpt>
      <trkpt lat="44.68669" lon="5.46095">
        <ele>533.6689453125</ele>
        <time>2013-08-08T16:57:23Z</time>
      </trkpt>
      <trkpt lat="44.68668" lon="5.46079">
        <ele>533.6689453125</ele>
        <time>2013-08-08T16:58:16Z</time>
      </trkpt>
      <trkpt lat="44.6866" lon="5.46048">
        <ele>533.18835449219</ele>
        <time>2013-08-08T16:58:36Z</time>
      </trkpt>
      <trkpt lat="44.68654" lon="5.4603">
        <ele>533.18835449219</ele>
        <time>2013-08-08T16:58:55Z</time>
      </trkpt>
      <trkpt lat="44.68636" lon="5.45984">
        <ele>533.18835449219</ele>
        <time>2013-08-08T16:59:22Z</time>
      </trkpt>
      <trkpt lat="44.6863" lon="5.45972">
        <ele>533.18835449219</ele>
        <time>2013-08-08T16:59:30Z</time>
      </trkpt>
      <trkpt lat="44.68614" lon="5.45938">
        <ele>532.70776367188</ele>
        <time>2013-08-08T16:59:52Z</time>
      </trkpt>
      <trkpt lat="44.68611" lon="5.45928">
        <ele>532.22705078125</ele>
        <time>2013-08-08T17:00:13Z</time>
      </trkpt>
      <trkpt lat="44.68602" lon="5.45908">
        <ele>532.70776367188</ele>
        <time>2013-08-08T17:00:32Z</time>
      </trkpt>
      <trkpt lat="44.68596" lon="5.45895">
        <ele>532.22705078125</ele>
        <time>2013-08-08T17:00:51Z</time>
      </trkpt>
      <trkpt lat="44.68576" lon="5.45855">
        <ele>531.74633789062</ele>
        <time>2013-08-08T17:01:16Z</time>
      </trkpt>
      <trkpt lat="44.68564" lon="5.45819">
        <ele>531.74633789062</ele>
        <time>2013-08-08T17:01:37Z</time>
      </trkpt>
      <trkpt lat="44.68556" lon="5.45796">
        <ele>531.26574707031</ele>
        <time>2013-08-08T17:01:56Z</time>
      </trkpt>
      <trkpt lat="44.6855" lon="5.4578">
        <ele>531.26574707031</ele>
        <time>2013-08-08T17:02:21Z</time>
      </trkpt>
      <trkpt lat="44.68545" lon="5.45759">
        <ele>530.78515625</ele>
        <time>2013-08-08T17:02:32Z</time>
      </trkpt>
      <trkpt lat="44.68544" lon="5.45752">
        <ele>531.26574707031</ele>
        <time>2013-08-08T17:02:50Z</time>
      </trkpt>
      <trkpt lat="44.68535" lon="5.45714">
        <ele>530.78515625</ele>
        <time>2013-08-08T17:03:11Z</time>
      </trkpt>
      <trkpt lat="44.68531" lon="5.45698">
        <ele>529.82373046875</ele>
        <time>2013-08-08T17:03:28Z</time>
      </trkpt>
      <trkpt lat="44.68526" lon="5.45677">
        <ele>530.30444335938</ele>
        <time>2013-08-08T17:03:50Z</time>
      </trkpt>
      <trkpt lat="44.68518" lon="5.45631">
        <ele>529.34313964844</ele>
        <time>2013-08-08T17:04:15Z</time>
      </trkpt>
      <trkpt lat="44.68509" lon="5.45577">
        <ele>529.82373046875</ele>
        <time>2013-08-08T17:04:45Z</time>
      </trkpt>
      <trkpt lat="44.68505" lon="5.45526">
        <ele>529.34313964844</ele>
        <time>2013-08-08T17:05:13Z</time>
      </trkpt>
      <trkpt lat="44.68502" lon="5.45476">
        <ele>528.86254882812</ele>
        <time>2013-08-08T17:05:39Z</time>
      </trkpt>
      <trkpt lat="44.68495" lon="5.4542">
        <ele>527.42041015625</ele>
        <time>2013-08-08T17:06:09Z</time>
      </trkpt>
      <trkpt lat="44.68483" lon="5.45369">
        <ele>526.45910644531</ele>
        <time>2013-08-08T17:06:38Z</time>
      </trkpt>
      <trkpt lat="44.6847" lon="5.45316">
        <ele>525.49780273438</ele>
        <time>2013-08-08T17:07:09Z</time>
      </trkpt>
      <trkpt lat="44.68463" lon="5.4527">
        <ele>525.49780273438</ele>
        <time>2013-08-08T17:07:34Z</time>
      </trkpt>
      <trkpt lat="44.68457" lon="5.45223">
        <ele>525.49780273438</ele>
        <time>2013-08-08T17:08:01Z</time>
      </trkpt>
      <trkpt lat="44.68451" lon="5.45173">
        <ele>525.49780273438</ele>
        <time>2013-08-08T17:08:29Z</time>
      </trkpt>
      <trkpt lat="44.68447" lon="5.45136">
        <ele>525.49780273438</ele>
        <time>2013-08-08T17:08:49Z</time>
      </trkpt>
      <trkpt lat="44.68443" lon="5.45084">
        <ele>524.05578613281</ele>
        <time>2013-08-08T17:09:17Z</time>
      </trkpt>
      <trkpt lat="44.68442" lon="5.4504">
        <ele>524.05578613281</ele>
        <time>2013-08-08T17:09:41Z</time>
      </trkpt>
      <trkpt lat="44.6844" lon="5.45016">
        <ele>523.5751953125</ele>
        <time>2013-08-08T17:09:58Z</time>
      </trkpt>
      <trkpt lat="44.68439" lon="5.44966">
        <ele>523.09460449219</ele>
        <time>2013-08-08T17:10:24Z</time>
      </trkpt>
      <trkpt lat="44.68433" lon="5.44907">
        <ele>523.09460449219</ele>
        <time>2013-08-08T17:10:56Z</time>
      </trkpt>
      <trkpt lat="44.68432" lon="5.44882">
        <ele>522.13317871094</ele>
        <time>2013-08-08T17:11:11Z</time>
      </trkpt>
      <trkpt lat="44.68431" lon="5.44835">
        <ele>522.61389160156</ele>
        <time>2013-08-08T17:11:37Z</time>
      </trkpt>
      <trkpt lat="44.68428" lon="5.44828">
        <ele>522.13317871094</ele>
        <time>2013-08-08T17:11:57Z</time>
      </trkpt>
      <trkpt lat="44.68428" lon="5.44819">
        <ele>522.13317871094</ele>
        <time>2013-08-08T17:12:02Z</time>
      </trkpt>
      <trkpt lat="44.68423" lon="5.44777">
        <ele>521.65258789062</ele>
        <time>2013-08-08T17:12:28Z</time>
      </trkpt>
      <trkpt lat="44.68421" lon="5.44765">
        <ele>521.65258789062</ele>
        <time>2013-08-08T17:12:47Z</time>
      </trkpt>
      <trkpt lat="44.68418" lon="5.44734">
        <ele>521.17199707031</ele>
        <time>2013-08-08T17:13:10Z</time>
      </trkpt>
      <trkpt lat="44.68415" lon="5.44711">
        <ele>520.69128417969</ele>
        <time>2013-08-08T17:13:24Z</time>
      </trkpt>
      <trkpt lat="44.68412" lon="5.44692">
        <ele>520.69128417969</ele>
        <time>2013-08-08T17:13:46Z</time>
      </trkpt>
      <trkpt lat="44.68406" lon="5.44639">
        <ele>520.69128417969</ele>
        <time>2013-08-08T17:14:26Z</time>
      </trkpt>
      <trkpt lat="44.68402" lon="5.4462">
        <ele>520.21057128906</ele>
        <time>2013-08-08T17:14:46Z</time>
      </trkpt>
      <trkpt lat="44.68401" lon="5.44605">
        <ele>520.21057128906</ele>
        <time>2013-08-08T17:15:00Z</time>
      </trkpt>
      <trkpt lat="44.68397" lon="5.44586">
        <ele>520.21057128906</ele>
        <time>2013-08-08T17:15:19Z</time>
      </trkpt>
      <trkpt lat="44.68397" lon="5.44572">
        <ele>520.21057128906</ele>
        <time>2013-08-08T17:15:38Z</time>
      </trkpt>
      <trkpt lat="44.68393" lon="5.44548">
        <ele>520.21057128906</ele>
        <time>2013-08-08T17:15:55Z</time>
      </trkpt>
      <trkpt lat="44.68384" lon="5.44479">
        <ele>519.24926757812</ele>
        <time>2013-08-08T17:16:31Z</time>
      </trkpt>
      <trkpt lat="44.68381" lon="5.44453">
        <ele>519.24926757812</ele>
        <time>2013-08-08T17:16:45Z</time>
      </trkpt>
      <trkpt lat="44.68372" lon="5.44422">
        <ele>518.7685546875</ele>
        <time>2013-08-08T17:17:05Z</time>
      </trkpt>
      <trkpt lat="44.6837" lon="5.44421">
        <ele>518.7685546875</ele>
        <time>2013-08-08T17:17:07Z</time>
      </trkpt>
      <trkpt lat="44.68364" lon="5.44424">
        <ele>518.28784179688</ele>
        <time>2013-08-08T17:17:13Z</time>
      </trkpt>
      <trkpt lat="44.68346" lon="5.4445">
        <ele>518.28784179688</ele>
        <time>2013-08-08T17:17:34Z</time>
      </trkpt>
      <trkpt lat="44.68348" lon="5.4445">
        <ele>517.80725097656</ele>
        <time>2013-08-08T17:17:54Z</time>
      </trkpt>
      <trkpt lat="44.68346" lon="5.44451">
        <ele>517.80725097656</ele>
        <time>2013-08-08T17:18:37Z</time>
      </trkpt>
      <trkpt lat="44.68339" lon="5.44461">
        <ele>518.28784179688</ele>
        <time>2013-08-08T17:18:50Z</time>
      </trkpt>
      <trkpt lat="44.68347" lon="5.44451">
        <ele>518.28784179688</ele>
        <time>2013-08-08T17:20:18Z</time>
      </trkpt>
      <trkpt lat="44.68331" lon="5.44482">
        <ele>517.80725097656</ele>
        <time>2013-08-08T17:20:39Z</time>
      </trkpt>
      <trkpt lat="44.68306" lon="5.44531">
        <ele>517.80725097656</ele>
        <time>2013-08-08T17:21:12Z</time>
      </trkpt>
      <trkpt lat="44.68296" lon="5.44552">
        <ele>517.80725097656</ele>
        <time>2013-08-08T17:21:34Z</time>
      </trkpt>
      <trkpt lat="44.68294" lon="5.44556">
        <ele>517.80725097656</ele>
        <time>2013-08-08T17:21:43Z</time>
      </trkpt>
      <trkpt lat="44.68274" lon="5.44597">
        <ele>517.80725097656</ele>
        <time>2013-08-08T17:22:08Z</time>
      </trkpt>
      <trkpt lat="44.68253" lon="5.44642">
        <ele>517.32666015625</ele>
        <time>2013-08-08T17:22:37Z</time>
      </trkpt>
      <trkpt lat="44.68248" lon="5.44655">
        <ele>517.32666015625</ele>
        <time>2013-08-08T17:22:46Z</time>
      </trkpt>
    </trkseg>
  </trk>
</gpx>